createdAt,value
2022-12-29T00:00:22.605Z,16.23
2022-12-29T00:02:49.692Z,12.55
2022-12-29T00:05:16.739Z,4.82
2022-12-29T00:07:44.972Z,13.85
2022-12-29T00:10:12.096Z,12.32
2022-12-29T00:12:57.476Z,11.95
2022-12-29T00:15:39.726Z,4.32
2022-12-29T00:18:07.581Z,13.07
2022-12-29T00:20:57.117Z,10.48
2022-12-29T00:23:42.778Z,8.48
2022-12-29T00:26:36.078Z,5.80
2022-12-29T00:29:21.736Z,12.90
2022-12-29T00:32:07.688Z,10.03
2022-12-29T00:34:53.343Z,2.42
2022-12-29T00:37:40.266Z,12.65
2022-12-29T00:40:26.490Z,9.82
2022-12-29T00:43:19.496Z,17.20
2022-12-29T00:45:46.653Z,7.68
2022-12-29T00:48:13.541Z,7.63
2022-12-29T00:50:41.028Z,10.80
2022-12-29T00:53:07.999Z,6.10
2022-12-29T00:55:38.259Z,5.45
2022-12-29T00:58:05.345Z,18.58
2022-12-29T01:00:33.529Z,10.57
2022-12-29T01:03:01.542Z,8.63
2022-12-29T01:05:31.157Z,10.13
2022-12-29T01:07:58.095Z,15.68
2022-12-29T01:10:26.639Z,13.32
2022-12-29T01:12:53.548Z,18.80
2022-12-29T01:15:20.552Z,18.85
2022-12-29T01:17:49.120Z,12.23
2022-12-29T01:20:16.067Z,14.43
2022-12-29T01:22:43.531Z,14.05
2022-12-29T01:25:10.536Z,9.90
2022-12-29T01:27:38.974Z,12.10
2022-12-29T01:30:06.827Z,8.50
2022-12-29T01:32:34.284Z,11.07
2022-12-29T01:35:01.201Z,6.72
2022-12-29T01:37:28.209Z,8.98
2022-12-29T01:39:55.247Z,15.15
2022-12-29T01:42:25.339Z,15.98
2022-12-29T01:44:54.549Z,12.52
2022-12-29T01:47:54.462Z,10.45
2022-12-29T01:50:41.653Z,12.30
2022-12-29T01:53:10.187Z,11.85
2022-12-29T01:55:40.224Z,7.68
2022-12-29T01:58:08.735Z,7.28
2022-12-29T02:00:35.898Z,12.88
2022-12-29T02:03:03.062Z,14.95
2022-12-29T02:05:41.485Z,8.15
2022-12-29T02:08:10.106Z,7.82
2022-12-29T02:10:37.131Z,12.52
2022-12-29T02:13:04.469Z,10.75
2022-12-29T03:40:31.115Z,14.95
2022-12-29T03:42:58.689Z,24.65
2022-12-29T03:45:25.923Z,12.38
2022-12-29T03:47:53.426Z,17.65
2022-12-29T03:50:20.389Z,15.63
2022-12-29T03:52:47.721Z,11.50
2022-12-29T03:55:16.038Z,17.67
2022-12-29T03:57:43.475Z,17.75
2022-12-29T04:00:15.165Z,15.98
2022-12-29T04:02:43.430Z,13.63
2022-12-29T04:05:17.573Z,12.55
2022-12-29T04:07:44.553Z,19.55
2022-12-29T04:10:11.463Z,9.75
2022-12-29T04:12:39.075Z,11.02
2022-12-29T04:15:06.845Z,7.13
2022-12-29T04:17:34.344Z,9.35
2022-12-29T04:20:21.027Z,21.63
2022-12-29T04:22:48.036Z,21.23
2022-12-29T04:25:15.284Z,19.38
2022-12-29T04:27:43.422Z,17.95
2022-12-29T04:30:28.903Z,6.60
2022-12-29T04:33:04.785Z,15.63
2022-12-29T04:35:31.990Z,10.75
2022-12-29T04:37:59.948Z,18.48
2022-12-29T04:40:27.012Z,16.00
2022-12-29T04:42:54.263Z,17.15
2022-12-29T04:45:24.186Z,11.82
2022-12-29T04:47:55.383Z,17.08
2022-12-29T04:50:48.319Z,21.60
2022-12-29T04:53:17.966Z,14.23
2022-12-29T04:55:49.921Z,10.15
2022-12-29T04:58:22.604Z,15.73
2022-12-29T05:00:51.894Z,6.82
2022-12-29T05:03:20.761Z,19.42
2022-12-29T05:05:48.043Z,10.07
2022-12-29T05:08:15.190Z,17.80
2022-12-29T05:10:46.403Z,11.05
2022-12-29T05:13:13.835Z,9.32
2022-12-29T05:15:53.136Z,14.00
2022-12-29T05:18:20.726Z,9.30
2022-12-29T05:20:48.878Z,12.90
2022-12-29T05:23:18.538Z,9.73
2022-12-29T05:25:50.367Z,17.27
2022-12-29T05:28:20.232Z,11.15
2022-12-29T05:30:54.758Z,10.30
2022-12-29T05:33:21.703Z,12.48
2022-12-29T05:35:50.570Z,16.33
2022-12-29T05:38:19.806Z,17.23
2022-12-29T05:40:47.049Z,10.50
2022-12-29T05:43:33.974Z,11.27
2022-12-29T05:46:36.705Z,17.63
2022-12-29T05:49:26.814Z,13.02
2022-12-29T05:52:08.233Z,17.80
2022-12-29T05:54:35.410Z,14.68
2022-12-29T05:57:04.729Z,5.70
2022-12-29T05:59:33.651Z,7.15
2022-12-29T06:02:01.374Z,7.75
2022-12-29T06:04:28.869Z,10.05
2022-12-29T06:06:56.146Z,6.72
2022-12-29T06:09:43.421Z,6.93
2022-12-29T06:12:10.934Z,6.25
2022-12-29T06:14:39.763Z,7.72
2022-12-29T06:17:07.240Z,9.90
2022-12-29T06:19:36.002Z,9.65
2022-12-29T06:22:03.039Z,7.53
2022-12-29T06:24:33.460Z,6.07
2022-12-29T06:27:00.743Z,6.13
2022-12-29T06:29:28.710Z,9.38
2022-12-29T06:31:59.038Z,9.00
2022-12-29T06:34:27.214Z,4.75
2022-12-29T06:36:54.232Z,2.67
2022-12-29T06:39:21.128Z,0.95
2022-12-29T06:42:02.276Z,3.15
2022-12-29T06:45:12.738Z,2.45
2022-12-29T09:59:06.999Z,2.08
2022-12-29T10:01:45.948Z,0.50
2022-12-29T10:04:15.982Z,1.27
2022-12-29T10:10:13.997Z,1.52
2022-12-29T10:13:16.130Z,0.38
2022-12-29T10:16:10.994Z,3.72
2022-12-29T10:18:59.892Z,4.03
2022-12-29T10:21:41.345Z,3.28
2022-12-29T10:24:12.294Z,6.63
2022-12-29T10:27:30.526Z,0.57
2022-12-29T10:29:57.595Z,1.15
2022-12-29T10:32:40.690Z,4.80
2022-12-29T10:35:19.921Z,4.72
2022-12-29T10:37:57.532Z,3.45
2022-12-29T10:40:35.810Z,1.90
2022-12-29T10:43:29.689Z,2.25
2022-12-29T10:46:03.913Z,5.20
2022-12-29T10:48:34.406Z,1.50
2022-12-29T10:51:05.393Z,0.10
2022-12-29T10:54:11.115Z,3.10
2022-12-29T10:56:55.402Z,1.45
2022-12-29T10:59:24.589Z,1.42
2022-12-29T11:02:10.336Z,3.67
2022-12-29T11:04:45.175Z,2.17
2022-12-29T11:07:16.066Z,1.90
2022-12-29T11:09:43.729Z,0.00
2022-12-29T11:12:30.307Z,5.72
2022-12-29T11:15:16.405Z,2.20
2022-12-29T11:17:57.806Z,1.45
2022-12-29T11:20:31.080Z,5.57
2022-12-29T11:22:58.418Z,1.73
2022-12-29T11:25:25.479Z,2.25
2022-12-29T11:28:03.119Z,1.48
2022-12-29T11:30:31.989Z,0.68
2022-12-29T11:32:59.744Z,4.13
2022-12-29T11:35:45.584Z,5.25
2022-12-29T11:38:27.332Z,2.08
2022-12-29T11:40:54.406Z,1.95
2022-12-29T11:43:42.164Z,2.38
2022-12-29T11:46:27.521Z,3.53
2022-12-29T11:48:54.513Z,1.40
2022-12-29T11:51:26.359Z,5.95
2022-12-29T11:53:58.915Z,3.58
2022-12-29T11:56:55.676Z,2.33
2022-12-29T12:00:15.596Z,3.08
2022-12-29T12:03:03.454Z,2.88
2022-12-29T12:05:39.919Z,6.32
2022-12-29T12:10:55.569Z,5.82
2022-12-29T12:13:35.219Z,9.32
2022-12-29T12:16:25.168Z,5.22
2022-12-29T12:19:05.584Z,5.70
2022-12-29T12:21:45.991Z,1.30
2022-12-29T12:24:31.619Z,2.45
2022-12-29T12:27:18.079Z,1.95
2022-12-29T12:30:08.786Z,5.10
2022-12-29T12:33:04.899Z,4.15
2022-12-29T12:36:11.233Z,12.27
2022-12-29T12:38:38.365Z,1.67
2022-12-29T12:41:28.694Z,4.50
2022-12-29T12:44:09.947Z,6.85
2022-12-29T12:48:08.811Z,7.03
2022-12-29T12:51:15.760Z,2.67
2022-12-29T12:53:57.081Z,7.25
2022-12-29T12:56:29.181Z,8.25
2022-12-29T12:59:24.323Z,7.88
2022-12-29T13:02:01.519Z,5.03
2022-12-29T13:04:43.639Z,3.03
2022-12-29T13:07:22.414Z,7.75
2022-12-29T13:10:27.095Z,4.20
2022-12-29T13:13:16.203Z,5.15
2022-12-29T13:16:14.143Z,0.82
2022-12-29T13:18:44.574Z,1.92
2022-12-29T13:21:23.333Z,7.05
2022-12-29T13:23:56.400Z,7.00
2022-12-29T13:26:42.049Z,12.43
2022-12-29T13:29:23.705Z,6.40
2022-12-29T13:32:05.705Z,4.10
2022-12-29T13:34:48.635Z,2.13
2022-12-29T13:37:20.282Z,4.32
2022-12-29T13:39:50.823Z,7.93
2022-12-29T13:42:19.336Z,3.72
2022-12-29T13:44:53.484Z,13.57
2022-12-29T13:47:43.862Z,3.42
2022-12-29T13:50:16.723Z,7.80
2022-12-29T13:53:08.450Z,4.05
2022-12-29T13:56:14.708Z,2.53
2022-12-29T13:58:50.822Z,2.53
2022-12-29T14:01:37.413Z,2.90
2022-12-29T14:04:10.845Z,13.15
2022-12-29T14:06:45.072Z,14.77
2022-12-29T14:09:43.811Z,3.58
2022-12-29T14:12:43.362Z,10.85
2022-12-29T14:23:16.020Z,4.78
